TimeEDT,TemperatureF,Dew PointF,Humidity,Sea Level PressureIn,VisibilityMPH,Wind Direction,Wind SpeedMPH,Gust SpeedMPH,PrecipitationIn,Events,Conditions,WindDirDegrees,DateUTC
12:53 AM,50.0,34.0,54,30.22,-9999.0,NNW,4.6,-,N/A,,Unknown,330,2013-03-14 04:53:00
1:53 AM,48.9,30.9,50,30.22,-9999.0,NNW,6.9,-,N/A,,Unknown,330,2013-03-14 05:53:00
2:53 AM,48.0,28.9,48,30.22,-9999.0,NNW,5.8,-,N/A,,Unknown,330,2013-03-14 06:53:00
3:53 AM,46.9,28.9,50,30.23,-9999.0,NNW,8.1,-,N/A,,Unknown,340,2013-03-14 07:53:00
4:53 AM,45.0,27.0,49,30.25,-9999.0,NNW,5.8,-,N/A,,Unknown,340,2013-03-14 08:53:00
5:53 AM,44.1,27.0,51,30.25,-9999.0,North,5.8,-,N/A,,Unknown,350,2013-03-14 09:53:00
6:53 AM,39.0,27.0,62,30.28,-9999.0,NNW,3.5,-,N/A,,Unknown,330,2013-03-14 10:53:00
7:53 AM,37.0,27.0,67,30.30,-9999.0,North,4.6,-,N/A,,Unknown,360,2013-03-14 11:53:00
8:53 AM,44.1,28.0,53,30.32,-9999.0,North,5.8,-,N/A,,Unknown,360,2013-03-14 12:53:00
9:53 AM,48.9,27.0,43,30.33,-9999.0,North,10.4,-,N/A,,Unknown,10,2013-03-14 13:53:00
10:53 AM,51.1,24.1,35,30.33,-9999.0,NNE,12.7,-,N/A,,Unknown,20,2013-03-14 14:53:00
11:53 AM,55.0,26.1,33,30.32,-9999.0,North,9.2,-,N/A,,Unknown,360,2013-03-14 15:53:00
12:53 PM,57.9,25.0,28,30.31,-9999.0,NNE,11.5,-,N/A,,Unknown,30,2013-03-14 16:53:00
1:53 PM,60.1,26.1,27,30.27,-9999.0,Variable,5.8,-,N/A,,Unknown,0,2013-03-14 17:53:00
2:53 PM,62.1,25.0,24,30.26,-9999.0,NNE,10.4,17.3,N/A,,Unknown,20,2013-03-14 18:53:00
3:53 PM,64.0,26.1,24,30.24,-9999.0,Variable,5.8,-,N/A,,Unknown,0,2013-03-14 19:53:00
4:53 PM,64.9,25.0,22,30.22,-9999.0,North,10.4,-,N/A,,Unknown,10,2013-03-14 20:53:00
5:53 PM,64.0,23.0,21,30.22,-9999.0,Variable,6.9,-,N/A,,Unknown,0,2013-03-14 21:53:00
6:53 PM,63.0,23.0,22,30.22,-9999.0,North,6.9,-,N/A,,Unknown,360,2013-03-14 22:53:00
7:53 PM,53.1,30.0,41,30.22,-9999.0,Calm,Calm,-,N/A,,Unknown,0,2013-03-14 23:53:00
8:53 PM,48.0,28.9,48,30.25,-9999.0,NNW,3.5,-,N/A,,Unknown,330,2013-03-15 00:53:00
9:53 PM,48.9,28.0,44,30.27,-9999.0,North,4.6,-,N/A,,Unknown,360,2013-03-15 01:53:00
10:53 PM,45.0,28.9,53,30.27,-9999.0,North,5.8,-,N/A,,Unknown,360,2013-03-15 02:53:00
11:53 PM,39.9,28.9,65,30.28,-9999.0,North,4.6,-,N/A,,Unknown,10,2013-03-15 03:53:00